Terminal Aerodrome Forecast
Issued by NWS Greer, SC

Home | Current Version | Previous Version | Text Only | Print | Product List | Glossary On
Versions: 1 2 3 4 5 6 7 8 9 10 11 12 13 14 15 16 17 18 19 20 21 22 23 24 25 26 27 28 29 30 31 32 33 34 35 36 37 38 39 40 41 42 43 44 45 46
000
FTUS42 KGSP 231132
TAFAVL
TAF
KAVL 231132Z 2312/2412 00000KT 3/4SM BR BKN002
      TEMPO 2313/2316 3SM BR SCT002 BKN030
     FM231600 16003KT P6SM BKN035
     FM232200 16006KT P6SM SCT050
     FM240500 VRB02KT 5SM BR BKN040
     FM240900 VRB02KT 1/2SM FG BKN003=

USA.gov is the U.S. government's official web portal to all federal, state and local government web resources and services.